createdAt,value
2022-12-27T00:00:24.218Z,1005.34
2022-12-27T00:01:24.157Z,1005.47
2022-12-27T00:02:24.238Z,1005.46
2022-12-27T00:03:24.156Z,1005.51
2022-12-27T00:04:24.140Z,1005.51
2022-12-27T00:05:24.113Z,1005.55
2022-12-27T00:06:24.118Z,1005.59
2022-12-27T00:07:24.083Z,1005.61
2022-12-27T00:08:24.096Z,1005.60
2022-12-27T00:09:24.085Z,1005.61
2022-12-27T00:10:24.047Z,1005.60
2022-12-27T00:11:24.038Z,1005.60
2022-12-27T00:12:24.069Z,1005.67
2022-12-27T00:13:24.009Z,1005.65
2022-12-27T00:14:24.040Z,1005.61
2022-12-27T00:15:23.968Z,1005.64
2022-12-27T00:16:24.046Z,1005.60
2022-12-27T00:17:23.971Z,1005.62
2022-12-27T00:18:23.973Z,1005.63
2022-12-27T00:19:23.937Z,1005.58
2022-12-27T00:20:25.157Z,1005.59
2022-12-27T00:21:23.916Z,1005.59
2022-12-27T00:22:23.909Z,1005.60
2022-12-27T00:23:23.910Z,1005.54
2022-12-27T00:24:23.920Z,1005.58
2022-12-27T00:25:23.898Z,1005.60
2022-12-27T00:26:23.877Z,1005.65
2022-12-27T00:27:23.878Z,1005.61
2022-12-27T00:28:23.871Z,1005.68
2022-12-27T00:29:23.845Z,1005.69
2022-12-27T00:30:23.868Z,1005.67
2022-12-27T00:31:23.876Z,1005.66
2022-12-27T00:32:23.788Z,1005.70
2022-12-27T00:33:23.778Z,1005.69
2022-12-27T00:34:23.807Z,1005.71
2022-12-27T00:35:23.765Z,1005.68
2022-12-27T00:36:23.766Z,1005.71
2022-12-27T00:37:24.019Z,1005.76
2022-12-27T00:38:23.750Z,1005.67
2022-12-27T00:39:23.709Z,1005.71
2022-12-27T00:40:23.715Z,1005.69
2022-12-27T00:41:23.704Z,1005.72
2022-12-27T00:42:23.691Z,1005.76
2022-12-27T00:43:23.711Z,1005.75
2022-12-27T00:44:23.664Z,1005.75
2022-12-27T00:45:23.695Z,1005.83
2022-12-27T00:46:23.631Z,1005.79
2022-12-27T00:47:23.614Z,1005.80
2022-12-27T00:48:23.598Z,1005.83
2022-12-27T00:49:23.641Z,1005.81
2022-12-27T00:50:23.602Z,1005.84
2022-12-27T00:51:23.580Z,1005.84
2022-12-27T00:52:23.575Z,1005.84
2022-12-27T00:53:23.545Z,1005.86
2022-12-27T00:54:23.554Z,1005.90
2022-12-27T00:55:23.519Z,1005.94
2022-12-27T00:56:23.526Z,1005.94
2022-12-27T00:57:23.516Z,1005.90
2022-12-27T00:58:23.539Z,1005.95
2022-12-27T00:59:23.482Z,1005.98
2022-12-27T01:00:23.491Z,1005.91
2022-12-27T01:01:23.521Z,1005.89
2022-12-27T01:02:23.517Z,1005.92
2022-12-27T01:03:23.472Z,1005.87
2022-12-27T01:04:23.433Z,1005.86
2022-12-27T01:05:23.423Z,1005.82
2022-12-27T01:06:23.402Z,1005.90
2022-12-27T01:07:23.404Z,1005.93
2022-12-27T01:08:23.362Z,1005.95
2022-12-27T01:09:23.417Z,1005.99
2022-12-27T01:10:23.368Z,1006.00
2022-12-27T01:11:23.363Z,1005.99
2022-12-27T01:12:23.324Z,1005.98
2022-12-27T01:13:23.319Z,1005.99
2022-12-27T01:14:23.284Z,1006.04
2022-12-27T01:15:23.289Z,1006.09
2022-12-27T01:16:23.309Z,1006.02
2022-12-27T01:17:23.284Z,1006.05
2022-12-27T01:18:23.274Z,1006.09
2022-12-27T01:19:23.251Z,1006.00
2022-12-27T01:20:23.215Z,1006.01
2022-12-27T01:21:23.283Z,1006.02
2022-12-27T01:22:23.188Z,1006.05
2022-12-27T01:23:23.214Z,1006.02
2022-12-27T01:24:23.187Z,1006.07
2022-12-27T01:25:23.170Z,1006.06
2022-12-27T01:26:23.156Z,1006.12
2022-12-27T01:27:23.148Z,1006.10
2022-12-27T01:28:23.136Z,1006.06
2022-12-27T01:29:23.277Z,1006.13
2022-12-27T01:30:23.096Z,1006.11
2022-12-27T01:31:23.222Z,1006.13
2022-12-27T01:32:23.079Z,1006.14
2022-12-27T01:33:23.064Z,1006.19
2022-12-27T01:34:23.045Z,1006.17
2022-12-27T01:35:23.065Z,1006.18
2022-12-27T01:36:23.022Z,1006.21
2022-12-27T01:37:23.026Z,1006.21
2022-12-27T01:38:22.996Z,1006.22
2022-12-27T01:39:23.008Z,1006.25
2022-12-27T01:40:23.007Z,1006.27
2022-12-27T01:41:22.978Z,1006.22
2022-12-27T01:42:22.987Z,1006.21
2022-12-27T01:43:22.952Z,1006.24
2022-12-27T01:44:22.929Z,1006.20
2022-12-27T01:45:22.937Z,1006.19
2022-12-27T01:46:22.989Z,1006.14
2022-12-27T01:47:22.898Z,1006.28
2022-12-27T01:48:22.937Z,1006.35
2022-12-27T01:49:22.921Z,1006.31
2022-12-27T01:50:22.906Z,1006.33
2022-12-27T01:51:22.895Z,1006.26
2022-12-27T01:52:22.841Z,1006.25
2022-12-27T01:53:22.851Z,1006.21
2022-12-27T01:54:22.880Z,1006.17
2022-12-27T01:55:22.798Z,1006.22
2022-12-27T01:56:22.794Z,1006.29
2022-12-27T01:57:22.819Z,1006.30
2022-12-27T01:58:22.799Z,1006.32
2022-12-27T01:59:22.781Z,1006.28
2022-12-27T02:00:22.775Z,1006.31
2022-12-27T02:01:22.869Z,1006.35
2022-12-27T02:02:22.860Z,1006.33
2022-12-27T02:03:22.717Z,1006.31
2022-12-27T02:04:22.700Z,1006.36
2022-12-27T02:05:22.699Z,1006.33
2022-12-27T02:06:22.699Z,1006.29
2022-12-27T02:07:22.658Z,1006.33
2022-12-27T02:08:22.685Z,1006.36
2022-12-27T02:09:22.638Z,1006.39
2022-12-27T02:10:22.628Z,1006.41
2022-12-27T02:11:22.621Z,1006.48
2022-12-27T02:12:22.630Z,1006.49
2022-12-27T02:13:22.593Z,1006.45
2022-12-27T02:14:27.681Z,1006.58
2022-12-27T02:15:23.579Z,1006.56
2022-12-27T02:16:22.647Z,1006.57
2022-12-27T02:17:22.542Z,1006.54
2022-12-27T02:18:22.529Z,1006.51
2022-12-27T02:19:22.515Z,1006.61
2022-12-27T02:20:22.554Z,1006.52
2022-12-27T02:21:22.500Z,1006.49
2022-12-27T02:22:22.488Z,1006.54
2022-12-27T02:23:22.482Z,1006.55
2022-12-27T02:24:22.479Z,1006.51
2022-12-27T02:25:22.441Z,1006.47
2022-12-27T02:26:22.472Z,1006.50
2022-12-27T02:27:22.453Z,1006.53
2022-12-27T02:28:22.420Z,1006.54
2022-12-27T02:29:22.520Z,1006.49
2022-12-27T02:30:22.400Z,1006.45
2022-12-27T02:31:22.388Z,1006.48
2022-12-27T02:32:22.416Z,1006.47
2022-12-27T02:33:22.370Z,1006.40
2022-12-27T02:34:22.363Z,1006.48
2022-12-27T02:35:22.360Z,1006.58
2022-12-27T02:36:22.340Z,1006.57
2022-12-27T02:37:22.346Z,1006.57
2022-12-27T02:38:22.561Z,1006.59
2022-12-27T02:39:22.298Z,1006.66
2022-12-27T02:40:22.283Z,1006.64
2022-12-27T02:41:22.283Z,1006.65
2022-12-27T02:42:22.266Z,1006.62
2022-12-27T02:43:22.303Z,1006.62
2022-12-27T02:44:22.253Z,1006.62
2022-12-27T02:45:22.229Z,1006.63
2022-12-27T02:46:22.320Z,1006.63
2022-12-27T02:47:22.204Z,1006.57
2022-12-27T02:48:22.199Z,1006.62
2022-12-27T02:49:22.214Z,1006.60
2022-12-27T02:50:22.164Z,1006.70
2022-12-27T02:51:22.187Z,1006.65
2022-12-27T02:52:22.154Z,1006.62
2022-12-27T02:53:22.124Z,1006.66
2022-12-27T02:54:22.140Z,1006.63
2022-12-27T02:55:22.135Z,1006.66
2022-12-27T02:56:22.105Z,1006.64
2022-12-27T02:57:22.100Z,1006.65
2022-12-27T02:58:22.085Z,1006.71
2022-12-27T02:59:22.075Z,1006.70
2022-12-27T03:00:22.134Z,1006.71
2022-12-27T03:01:22.194Z,1006.74
2022-12-27T03:02:22.195Z,1006.72
2022-12-27T03:03:22.074Z,1006.68
2022-12-27T03:04:22.070Z,1006.74
2022-12-27T03:05:21.997Z,1006.68
2022-12-27T03:06:22.019Z,1006.74
2022-12-27T03:07:21.975Z,1006.72
2022-12-27T03:08:21.965Z,1006.76
2022-12-27T03:09:21.958Z,1006.70
2022-12-27T03:10:21.975Z,1006.74
2022-12-27T03:11:21.951Z,1006.72
2022-12-27T03:12:21.938Z,1006.72
2022-12-27T03:13:21.917Z,1006.72
2022-12-27T03:14:21.928Z,1006.70
2022-12-27T03:15:21.888Z,1006.66
2022-12-27T03:16:21.922Z,1006.74
2022-12-27T03:17:21.898Z,1006.66
2022-12-27T03:18:21.854Z,1006.64
2022-12-27T03:19:21.840Z,1006.68
2022-12-27T03:20:21.871Z,1006.67
2022-12-27T03:21:21.805Z,1006.61
2022-12-27T03:22:21.806Z,1006.64
2022-12-27T03:23:21.828Z,1006.57
2022-12-27T03:24:21.796Z,1006.54
2022-12-27T03:25:21.776Z,1006.56
2022-12-27T03:26:21.764Z,1006.60
2022-12-27T03:27:21.746Z,1006.52
2022-12-27T03:28:21.759Z,1006.62
2022-12-27T03:29:21.743Z,1006.49
2022-12-27T03:30:21.734Z,1006.51
2022-12-27T03:31:21.777Z,1006.53
2022-12-27T03:32:21.708Z,1006.50
2022-12-27T03:33:21.684Z,1006.55
2022-12-27T03:34:21.711Z,1006.54
2022-12-27T03:35:21.666Z,1006.60
2022-12-27T03:36:21.660Z,1006.65
2022-12-27T03:37:21.639Z,1006.58
2022-12-27T03:38:21.618Z,1006.58
2022-12-27T03:39:21.660Z,1006.57
2022-12-27T03:40:21.595Z,1006.58
2022-12-27T03:41:21.593Z,1006.55
2022-12-27T03:42:21.604Z,1006.55
2022-12-27T03:43:21.562Z,1006.57
2022-12-27T03:44:21.538Z,1006.53
2022-12-27T03:45:21.549Z,1006.58
2022-12-27T03:46:21.593Z,1006.52
2022-12-27T03:47:21.526Z,1006.54
2022-12-27T03:48:21.501Z,1006.56
2022-12-27T03:49:21.505Z,1006.57
2022-12-27T03:50:21.518Z,1006.53
2022-12-27T03:51:21.526Z,1006.57
2022-12-27T03:52:21.449Z,1006.65
2022-12-27T03:53:21.452Z,1006.68
2022-12-27T03:54:21.445Z,1006.62
2022-12-27T03:55:21.471Z,1006.74
2022-12-27T03:56:21.449Z,1006.63
2022-12-27T03:57:21.404Z,1006.60
2022-12-27T03:58:21.389Z,1006.60
2022-12-27T03:59:21.444Z,1006.66
2022-12-27T04:00:21.372Z,1006.64
2022-12-27T04:01:21.455Z,1006.75
2022-12-27T04:02:22.210Z,1006.69
2022-12-27T04:03:21.388Z,1006.71
2022-12-27T04:04:21.320Z,1006.64
2022-12-27T04:05:21.315Z,1006.70
2022-12-27T04:06:21.319Z,1006.65
2022-12-27T04:07:21.325Z,1006.61
2022-12-27T04:08:21.282Z,1006.62
2022-12-27T04:09:21.284Z,1006.68
2022-12-27T04:10:21.256Z,1006.67
2022-12-27T04:11:21.265Z,1006.73
2022-12-27T04:12:21.229Z,1006.70
2022-12-27T04:13:21.261Z,1006.71
2022-12-27T04:14:21.216Z,1006.77
2022-12-27T04:15:21.209Z,1006.74
2022-12-27T04:16:21.211Z,1006.77
2022-12-27T04:17:21.219Z,1006.78
2022-12-27T04:18:21.152Z,1006.77
2022-12-27T04:19:21.162Z,1006.76
2022-12-27T04:20:21.135Z,1006.72
2022-12-27T04:21:21.140Z,1006.80
2022-12-27T04:22:21.134Z,1006.78
2022-12-27T04:23:21.115Z,1006.81
2022-12-27T04:24:21.125Z,1006.85
2022-12-27T04:25:21.094Z,1006.79
2022-12-27T04:26:21.063Z,1006.82
2022-12-27T04:27:21.067Z,1006.88
2022-12-27T04:28:21.064Z,1006.84
2022-12-27T04:29:21.033Z,1006.85
2022-12-27T04:30:21.106Z,1006.87
2022-12-27T04:31:21.065Z,1006.87
2022-12-27T04:32:21.004Z,1006.83
2022-12-27T04:33:21.006Z,1006.87
2022-12-27T04:34:20.994Z,1006.81
2022-12-27T04:35:20.997Z,1006.79
2022-12-27T04:36:20.993Z,1006.84
2022-12-27T04:37:20.964Z,1006.78
2022-12-27T04:38:20.946Z,1006.78
2022-12-27T04:39:20.926Z,1006.75
2022-12-27T04:40:20.937Z,1006.78
2022-12-27T04:41:20.952Z,1006.81
2022-12-27T04:42:20.887Z,1006.79
2022-12-27T04:43:20.885Z,1006.80
2022-12-27T04:44:20.888Z,1006.75
2022-12-27T04:45:20.905Z,1006.77
2022-12-27T04:46:20.901Z,1006.83
2022-12-27T04:47:20.869Z,1006.86
2022-12-27T04:48:20.831Z,1006.87
2022-12-27T04:49:20.818Z,1006.85
2022-12-27T04:50:20.817Z,1006.87
2022-12-27T04:51:20.818Z,1006.83
2022-12-27T04:52:20.809Z,1006.80
2022-12-27T04:53:20.761Z,1006.87
2022-12-27T04:54:20.765Z,1006.84
2022-12-27T04:55:20.756Z,1006.81
2022-12-27T04:56:20.726Z,1006.79
2022-12-27T04:57:20.716Z,1006.86
2022-12-27T04:58:20.734Z,1006.86
2022-12-27T04:59:20.747Z,1006.84
2022-12-27T05:00:20.706Z,1006.87
2022-12-27T05:01:20.756Z,1006.91
2022-12-27T05:02:20.753Z,1006.91
2022-12-27T05:03:20.764Z,1006.88
2022-12-27T05:04:20.645Z,1006.93
2022-12-27T05:05:20.626Z,1006.96
2022-12-27T05:06:20.637Z,1006.95
2022-12-27T05:07:20.606Z,1006.91
2022-12-27T05:08:20.621Z,1006.88
2022-12-27T05:09:23.278Z,1006.88
2022-12-27T05:10:20.586Z,1006.88
2022-12-27T05:11:20.556Z,1006.91
2022-12-27T05:12:20.567Z,1006.94
2022-12-27T05:13:20.542Z,1006.97
2022-12-27T05:14:20.518Z,1006.92
2022-12-27T05:15:21.485Z,1006.98
2022-12-27T05:16:20.659Z,1006.93
2022-12-27T05:17:20.497Z,1007.03
2022-12-27T05:18:20.507Z,1007.04
2022-12-27T05:19:20.513Z,1007.02
2022-12-27T05:20:20.510Z,1007.02
2022-12-27T05:21:20.522Z,1007.03
2022-12-27T05:22:20.457Z,1007.02
2022-12-27T05:23:20.432Z,1007.00
2022-12-27T05:24:20.407Z,1007.00
2022-12-27T05:25:20.401Z,1007.03
2022-12-27T05:26:20.386Z,1007.02
2022-12-27T05:27:20.422Z,1007.08
2022-12-27T05:28:20.375Z,1007.07
2022-12-27T05:29:20.351Z,1007.02
2022-12-27T05:30:20.404Z,1007.10
2022-12-27T05:31:20.394Z,1007.07
2022-12-27T05:32:20.347Z,1006.99
2022-12-27T05:33:20.301Z,1007.05
2022-12-27T05:34:20.292Z,1007.01
2022-12-27T05:35:20.284Z,1006.99
2022-12-27T05:36:20.272Z,1007.02
2022-12-27T05:37:20.278Z,1007.08
2022-12-27T05:38:20.287Z,1007.10
2022-12-27T05:39:20.246Z,1007.15
2022-12-27T05:40:20.226Z,1007.15
2022-12-27T05:41:20.228Z,1007.19
2022-12-27T05:42:20.203Z,1007.17
2022-12-27T05:43:20.187Z,1007.13
2022-12-27T05:44:20.199Z,1007.17
2022-12-27T05:45:20.179Z,1007.21
2022-12-27T05:46:20.246Z,1007.19
2022-12-27T05:47:20.151Z,1007.21
2022-12-27T05:48:20.144Z,1007.21
2022-12-27T05:49:20.119Z,1007.24
2022-12-27T05:50:20.149Z,1007.27
2022-12-27T05:51:20.092Z,1007.24
2022-12-27T05:52:20.096Z,1007.32
2022-12-27T05:53:20.104Z,1007.23
2022-12-27T05:54:20.073Z,1007.26
2022-12-27T05:55:20.104Z,1007.26
2022-12-27T05:56:20.120Z,1007.37
2022-12-27T05:57:20.062Z,1007.27
2022-12-27T05:58:20.022Z,1007.29
2022-12-27T05:59:20.010Z,1007.31
2022-12-27T06:00:20.030Z,1007.35
2022-12-27T06:01:20.040Z,1007.38
2022-12-27T06:02:20.225Z,1007.34
2022-12-27T06:03:20.026Z,1007.45
2022-12-27T06:04:19.978Z,1007.45
2022-12-27T06:05:20.013Z,1007.45
2022-12-27T06:06:20.000Z,1007.47
2022-12-27T06:07:19.918Z,1007.48
2022-12-27T06:08:19.932Z,1007.54
2022-12-27T06:09:19.906Z,1007.48
2022-12-27T06:10:19.910Z,1007.57
2022-12-27T06:11:19.901Z,1007.57
2022-12-27T06:12:19.884Z,1007.62
2022-12-27T06:13:19.841Z,1007.64
2022-12-27T06:14:19.824Z,1007.61
2022-12-27T06:15:19.845Z,1007.63
2022-12-27T06:16:19.879Z,1007.63
2022-12-27T06:17:19.916Z,1007.65
2022-12-27T06:18:19.811Z,1007.63
2022-12-27T06:19:19.829Z,1007.67
2022-12-27T06:20:19.774Z,1007.71
2022-12-27T06:21:19.759Z,1007.65
2022-12-27T06:22:19.733Z,1007.66
2022-12-27T06:23:19.742Z,1007.58
2022-12-27T06:24:19.752Z,1007.63
2022-12-27T06:25:19.744Z,1007.56
2022-12-27T06:26:19.700Z,1007.55
2022-12-27T06:27:19.678Z,1007.52
2022-12-27T06:28:19.695Z,1007.52
2022-12-27T06:29:19.665Z,1007.57
2022-12-27T06:30:19.669Z,1007.55
2022-12-27T06:31:19.644Z,1007.63
2022-12-27T06:32:19.635Z,1007.61
2022-12-27T06:33:19.625Z,1007.61
2022-12-27T06:34:19.614Z,1007.60
2022-12-27T06:35:28.366Z,1007.60
2022-12-27T06:36:19.598Z,1007.62
2022-12-27T06:37:19.599Z,1007.64
2022-12-27T06:38:19.579Z,1007.60
2022-12-27T06:39:19.545Z,1007.59
2022-12-27T06:40:19.527Z,1007.63
2022-12-27T06:41:19.538Z,1007.65
2022-12-27T06:42:19.526Z,1007.62
2022-12-27T06:43:19.534Z,1007.61
2022-12-27T06:44:19.488Z,1007.64
2022-12-27T06:45:19.479Z,1007.61
2022-12-27T06:46:19.499Z,1007.63
2022-12-27T06:47:19.526Z,1007.63
2022-12-27T06:48:19.502Z,1007.68
2022-12-27T06:49:19.442Z,1007.71
2022-12-27T06:50:19.431Z,1007.69
2022-12-27T06:51:19.468Z,1007.68
2022-12-27T06:52:19.408Z,1007.70
2022-12-27T06:53:19.433Z,1007.64
2022-12-27T06:54:19.450Z,1007.65
2022-12-27T06:55:19.441Z,1007.68
2022-12-27T06:56:19.403Z,1007.64
2022-12-27T06:57:19.368Z,1007.61
2022-12-27T06:58:19.335Z,1007.69
2022-12-27T06:59:19.354Z,1007.67
2022-12-27T07:00:19.354Z,1007.70
2022-12-27T07:01:19.437Z,1007.66
2022-12-27T07:02:19.407Z,1007.67
2022-12-27T07:03:19.325Z,1007.70
2022-12-27T07:04:19.349Z,1007.82
2022-12-27T07:05:19.484Z,1007.71
2022-12-27T07:06:19.341Z,1007.79
2022-12-27T07:07:19.308Z,1007.75
2022-12-27T07:08:19.230Z,1007.75
2022-12-27T07:09:19.212Z,1007.81
2022-12-27T07:10:19.257Z,1007.73
2022-12-27T07:11:19.217Z,1007.82
2022-12-27T07:12:19.189Z,1007.79
2022-12-27T07:13:19.205Z,1007.78
2022-12-27T07:14:19.173Z,1007.75
2022-12-27T07:15:19.154Z,1007.80
2022-12-27T07:16:19.230Z,1007.82
2022-12-27T07:17:19.124Z,1007.80
2022-12-27T07:18:19.111Z,1007.80
2022-12-27T07:19:19.134Z,1007.77
2022-12-27T07:20:19.081Z,1007.77
2022-12-27T07:21:19.086Z,1007.72
2022-12-27T07:22:19.076Z,1007.79
2022-12-27T07:23:19.481Z,1007.84
2022-12-27T07:24:19.032Z,1007.84
2022-12-27T07:25:19.081Z,1007.92
2022-12-27T07:26:19.012Z,1007.93
2022-12-27T07:27:19.048Z,1007.88
2022-12-27T07:28:18.992Z,1007.95
2022-12-27T07:29:18.984Z,1007.93
2022-12-27T07:30:18.960Z,1007.92
2022-12-27T07:31:19.008Z,1008.00
2022-12-27T07:32:19.012Z,1007.99
2022-12-27T07:33:18.973Z,1007.97
2022-12-27T07:34:18.941Z,1007.97
2022-12-27T07:35:18.923Z,1008.02
2022-12-27T07:36:18.934Z,1008.03
2022-12-27T07:37:18.889Z,1008.08
2022-12-27T07:38:18.886Z,1008.04
2022-12-27T07:39:18.895Z,1008.09
2022-12-27T07:40:18.854Z,1008.16
2022-12-27T07:41:18.893Z,1008.16
2022-12-27T07:42:18.846Z,1008.29
2022-12-27T07:43:18.860Z,1008.33
2022-12-27T07:44:19.760Z,1008.27
2022-12-27T07:45:18.866Z,1008.22
2022-12-27T07:46:18.814Z,1008.28
2022-12-27T07:47:18.782Z,1008.25
2022-12-27T07:48:18.773Z,1008.24
2022-12-27T07:49:18.753Z,1008.21
2022-12-27T07:50:18.751Z,1008.26
2022-12-27T07:51:18.763Z,1008.20
2022-12-27T07:52:18.723Z,1008.21
2022-12-27T07:53:18.765Z,1008.22
2022-12-27T07:54:18.720Z,1008.26
2022-12-27T07:55:18.688Z,1008.18
2022-12-27T07:56:25.241Z,1008.25
2022-12-27T07:57:19.661Z,1008.27
2022-12-27T07:58:18.752Z,1008.23
2022-12-27T07:59:18.645Z,1008.27
2022-12-27T08:00:18.633Z,1008.27
2022-12-27T08:01:18.728Z,1008.28
2022-12-27T08:02:18.725Z,1008.40
2022-12-27T08:03:18.606Z,1008.33
2022-12-27T08:04:18.604Z,1008.39
2022-12-27T08:05:24.382Z,1008.37
2022-12-27T08:06:19.564Z,1008.30
2022-12-27T08:07:18.564Z,1008.31
2022-12-27T08:08:18.566Z,1008.27
2022-12-27T08:09:18.536Z,1008.29
2022-12-27T08:10:18.517Z,1008.27
2022-12-27T08:11:18.622Z,1008.27
2022-12-27T08:12:18.488Z,1008.35
2022-12-27T08:13:18.510Z,1008.30
2022-12-27T08:14:18.502Z,1008.34
2022-12-27T08:15:18.456Z,1008.30
2022-12-27T08:16:18.519Z,1008.27
2022-12-27T08:17:18.432Z,1008.35
2022-12-27T08:18:18.429Z,1008.37
2022-12-27T08:19:18.405Z,1008.38
2022-12-27T08:20:18.426Z,1008.41
2022-12-27T08:21:18.401Z,1008.41
2022-12-27T08:22:18.398Z,1008.34
2022-12-27T08:23:18.369Z,1008.36
2022-12-27T08:24:18.351Z,1008.31
2022-12-27T08:25:18.340Z,1008.37
2022-12-27T08:26:18.408Z,1008.37
2022-12-27T08:27:18.326Z,1008.39
2022-12-27T08:28:18.375Z,1008.34
2022-12-27T08:29:18.297Z,1008.37
2022-12-27T08:30:18.324Z,1008.49
2022-12-27T08:31:18.390Z,1008.48
2022-12-27T08:32:18.266Z,1008.48
2022-12-27T08:33:18.252Z,1008.47
2022-12-27T08:34:18.249Z,1008.45
2022-12-27T08:35:51.061Z,1008.38
2022-12-27T08:36:53.344Z,1008.32
2022-12-27T08:37:19.277Z,1008.43
2022-12-27T08:38:18.194Z,1008.40
2022-12-27T08:39:18.183Z,1008.38
2022-12-27T08:40:18.164Z,1008.34
2022-12-27T08:41:18.158Z,1008.36
2022-12-27T08:42:18.159Z,1008.40
2022-12-27T08:43:18.144Z,1008.42
2022-12-27T08:44:18.159Z,1008.45
2022-12-27T08:45:18.111Z,1008.40
2022-12-27T08:46:18.153Z,1008.36
2022-12-27T08:47:18.079Z,1008.44
2022-12-27T08:48:18.150Z,1008.45
2022-12-27T08:49:18.085Z,1008.52
2022-12-27T08:50:18.060Z,1008.46
2022-12-27T08:51:26.612Z,1008.45
2022-12-27T08:52:19.033Z,1008.55
2022-12-27T08:53:18.023Z,1008.48
2022-12-27T08:54:18.029Z,1008.56
2022-12-27T08:55:18.000Z,1008.46
2022-12-27T08:56:18.000Z,1008.52
2022-12-27T08:57:17.978Z,1008.54
2022-12-27T08:58:18.130Z,1008.41
2022-12-27T08:59:17.943Z,1008.41
2022-12-27T09:00:18.001Z,1008.44
2022-12-27T09:01:17.977Z,1008.45
2022-12-27T09:02:17.990Z,1008.40
2022-12-27T09:03:17.936Z,1008.45
2022-12-27T09:04:17.885Z,1008.47
2022-12-27T09:05:17.930Z,1008.42
2022-12-27T09:06:17.882Z,1008.48
2022-12-27T09:07:17.879Z,1008.46
2022-12-27T09:08:17.849Z,1008.48
2022-12-27T09:09:17.853Z,1008.51
2022-12-27T09:10:17.823Z,1008.45
2022-12-27T09:11:17.892Z,1008.54
2022-12-27T09:12:17.801Z,1008.55
2022-12-27T09:13:17.788Z,1008.58
2022-12-27T09:14:17.784Z,1008.52
2022-12-27T09:15:17.794Z,1008.55
2022-12-27T09:16:17.826Z,1008.55
2022-12-27T09:17:18.887Z,1008.56
2022-12-27T09:18:17.734Z,1008.54
2022-12-27T09:19:17.714Z,1008.55
2022-12-27T09:20:17.727Z,1008.53
2022-12-27T09:21:17.715Z,1008.51
2022-12-27T09:22:17.685Z,1008.42
2022-12-27T09:23:17.710Z,1008.55
2022-12-27T09:24:17.676Z,1008.53
2022-12-27T09:25:17.720Z,1008.52
2022-12-27T09:26:17.633Z,1008.49
2022-12-27T09:27:17.635Z,1008.51
2022-12-27T09:28:17.644Z,1008.51
2022-12-27T09:29:17.604Z,1008.59
2022-12-27T09:30:17.588Z,1008.55
2022-12-27T09:31:17.693Z,1008.57
2022-12-27T09:32:17.577Z,1008.59
2022-12-27T09:33:17.559Z,1008.63
2022-12-27T09:34:17.564Z,1008.61
2022-12-27T09:35:17.546Z,1008.64
2022-12-27T09:36:17.533Z,1008.69
2022-12-27T09:37:17.517Z,1008.74
2022-12-27T09:38:17.486Z,1008.69
2022-12-27T09:39:17.532Z,1008.70
2022-12-27T09:40:17.503Z,1008.77
2022-12-27T09:41:40.939Z,1008.70
2022-12-27T09:42:56.143Z,1008.75
2022-12-27T09:43:24.089Z,1008.79
2022-12-27T09:44:18.447Z,1008.76
2022-12-27T09:45:17.418Z,1008.82
2022-12-27T09:46:17.439Z,1008.81
2022-12-27T09:47:17.450Z,1008.81
2022-12-27T09:48:17.397Z,1008.80
2022-12-27T09:49:17.403Z,1008.74
2022-12-27T09:50:17.425Z,1008.74
2022-12-27T09:51:17.378Z,1008.79
2022-12-27T09:52:17.406Z,1008.70
2022-12-27T09:53:17.427Z,1008.80
2022-12-27T09:54:17.322Z,1008.71
2022-12-27T09:55:17.321Z,1008.69
2022-12-27T09:56:17.288Z,1008.71
2022-12-27T09:57:20.167Z,1008.71
2022-12-27T09:58:17.286Z,1008.68
2022-12-27T09:59:17.256Z,1008.64
2022-12-27T10:00:17.268Z,1008.72
2022-12-27T10:01:17.361Z,1008.68
2022-12-27T10:02:17.355Z,1008.75
2022-12-27T10:03:17.208Z,1008.69
2022-12-27T10:04:17.248Z,1008.70
2022-12-27T10:05:22.122Z,1008.70
2022-12-27T10:06:18.233Z,1008.68
2022-12-27T10:07:17.168Z,1008.71
2022-12-27T10:08:17.158Z,1008.68
2022-12-27T10:09:17.149Z,1008.70
2022-12-27T10:10:17.140Z,1008.70
2022-12-27T10:11:17.119Z,1008.69
2022-12-27T10:12:17.134Z,1008.77
2022-12-27T10:13:17.115Z,1008.77
2022-12-27T10:14:17.079Z,1008.78
2022-12-27T10:15:17.121Z,1008.72
2022-12-27T10:16:17.091Z,1008.73
2022-12-27T10:17:17.059Z,1008.75
2022-12-27T10:18:17.063Z,1008.72
2022-12-27T10:19:17.127Z,1008.72
2022-12-27T10:20:17.020Z,1008.77
2022-12-27T10:21:17.041Z,1008.75
2022-12-27T10:22:16.990Z,1008.75
2022-12-27T10:23:17.013Z,1008.72
2022-12-27T10:24:16.979Z,1008.75
2022-12-27T10:25:16.962Z,1008.76
2022-12-27T10:26:16.942Z,1008.81
2022-12-27T10:27:16.948Z,1008.77
2022-12-27T10:28:16.928Z,1008.73
2022-12-27T10:29:16.972Z,1008.80
2022-12-27T10:30:16.905Z,1008.85
2022-12-27T10:31:16.956Z,1008.79
2022-12-27T10:32:16.872Z,1008.79
2022-12-27T10:33:16.864Z,1008.79
2022-12-27T10:34:16.889Z,1008.81
2022-12-27T10:35:16.872Z,1008.81
2022-12-27T10:36:16.852Z,1008.82
2022-12-27T10:37:16.815Z,1008.77
2022-12-27T10:38:16.878Z,1008.81
2022-12-27T10:39:16.901Z,1008.73
2022-12-27T10:40:16.826Z,1008.75
2022-12-27T10:41:16.785Z,1008.83
2022-12-27T10:42:16.765Z,1008.79
2022-12-27T10:43:16.908Z,1008.73
2022-12-27T10:44:16.753Z,1008.75
2022-12-27T10:45:16.728Z,1008.83
2022-12-27T10:46:16.845Z,1008.81
2022-12-27T10:47:16.717Z,1008.82
2022-12-27T10:48:16.693Z,1008.77
2022-12-27T10:49:21.078Z,1008.79
2022-12-27T10:50:17.732Z,1008.80
2022-12-27T10:51:16.656Z,1008.79
2022-12-27T10:52:16.747Z,1008.79
2022-12-27T10:53:16.641Z,1008.76
2022-12-27T10:54:16.630Z,1008.81
2022-12-27T10:55:16.617Z,1008.79
2022-12-27T10:56:16.614Z,1008.80
2022-12-27T10:57:16.596Z,1008.82
2022-12-27T10:58:16.615Z,1008.77
2022-12-27T10:59:16.568Z,1008.78
2022-12-27T11:00:16.597Z,1008.81
2022-12-27T11:01:16.715Z,1008.88
2022-12-27T11:02:16.730Z,1008.83
2022-12-27T11:03:16.537Z,1008.80
2022-12-27T11:04:20.745Z,1008.82
2022-12-27T11:05:17.521Z,1008.85
2022-12-27T11:06:16.488Z,1008.88
2022-12-27T11:07:16.472Z,1008.83
2022-12-27T11:08:16.467Z,1008.84
2022-12-27T11:09:16.473Z,1008.78
2022-12-27T11:10:16.532Z,1008.83
2022-12-27T11:11:16.428Z,1008.82
2022-12-27T11:12:16.431Z,1008.80
2022-12-27T11:13:16.406Z,1008.78
2022-12-27T11:14:16.402Z,1008.76
2022-12-27T11:15:16.390Z,1008.78
2022-12-27T11:16:16.453Z,1008.76
2022-12-27T11:17:16.367Z,1008.71
2022-12-27T11:18:16.354Z,1008.69
2022-12-27T11:19:16.340Z,1008.71
2022-12-27T11:20:16.406Z,1008.72
2022-12-27T11:21:25.611Z,1008.77
2022-12-27T11:22:17.349Z,1008.71
2022-12-27T11:23:16.320Z,1008.73
2022-12-27T11:24:16.317Z,1008.70
2022-12-27T11:25:16.299Z,1008.70
2022-12-27T11:26:16.262Z,1008.73
2022-12-27T11:27:16.312Z,1008.68
2022-12-27T11:28:16.253Z,1008.65
2022-12-27T11:29:16.259Z,1008.70
2022-12-27T11:30:16.214Z,1008.68
2022-12-27T11:31:16.333Z,1008.70
2022-12-27T11:32:16.189Z,1008.64
2022-12-27T11:33:21.044Z,1008.62
2022-12-27T11:34:17.170Z,1008.61
2022-12-27T11:35:16.163Z,1008.59
2022-12-27T11:36:16.151Z,1008.65
2022-12-27T11:37:16.162Z,1008.67
2022-12-27T11:38:16.121Z,1008.70
2022-12-27T11:39:16.277Z,1008.68
2022-12-27T11:40:16.277Z,1008.70
2022-12-27T11:41:16.097Z,1008.67
2022-12-27T11:42:16.077Z,1008.65
2022-12-27T11:43:16.120Z,1008.65
2022-12-27T11:44:16.086Z,1008.65
2022-12-27T11:45:16.041Z,1008.63
2022-12-27T11:46:16.074Z,1008.66
2022-12-27T11:47:16.044Z,1008.59
2022-12-27T11:48:16.047Z,1008.60
2022-12-27T11:49:15.999Z,1008.62
2022-12-27T11:50:16.026Z,1008.56
2022-12-27T11:51:15.984Z,1008.67
2022-12-27T11:52:15.960Z,1008.69
2022-12-27T11:53:15.964Z,1008.63
2022-12-27T11:54:15.934Z,1008.66
2022-12-27T11:55:15.971Z,1008.57
2022-12-27T11:56:15.968Z,1008.65
2022-12-27T11:57:15.908Z,1008.64
2022-12-27T11:58:15.894Z,1008.67
2022-12-27T11:59:15.885Z,1008.74
2022-12-27T12:00:15.864Z,1008.69
2022-12-27T12:01:15.915Z,1008.69
2022-12-27T12:02:15.970Z,1008.69
2022-12-27T12:03:15.931Z,1008.73
2022-12-27T12:04:15.833Z,1008.65
2022-12-27T12:05:15.860Z,1008.66